sensor_id;sensor_type;location;lat;lon;timestamp;P1;durP1;ratioP1;P2;durP2;ratioP2
39098;SDS011;24844;52.380;7.018;2022-08-30T00:00:03;4.93;;;3.60;;
39098;SDS011;24844;52.380;7.018;2022-08-30T00:02:50;9.68;;;4.85;;
39098;SDS011;24844;52.380;7.018;2022-08-30T00:05:17;7.38;;;4.07;;
39098;SDS011;24844;52.380;7.018;2022-08-30T00:07:43;7.28;;;4.18;;
39098;SDS011;24844;52.380;7.018;2022-08-30T00:10:08;9.13;;;4.60;;
39098;SDS011;24844;52.380;7.018;2022-08-30T00:12:34;5.03;;;4.22;;
39098;SDS011;24844;52.380;7.018;2022-08-30T00:15:00;4.63;;;4.00;;
39098;SDS011;24844;52.380;7.018;2022-08-30T00:17:26;4.55;;;3.80;;
39098;SDS011;24844;52.380;7.018;2022-08-30T00:19:52;4.05;;;3.65;;
39098;SDS011;24844;52.380;7.018;2022-08-30T00:22:17;6.25;;;4.43;;
39098;SDS011;24844;52.380;7.018;2022-08-30T00:24:43;8.07;;;4.40;;
39098;SDS011;24844;52.380;7.018;2022-08-30T00:27:08;6.95;;;4.03;;
39098;SDS011;24844;52.380;7.018;2022-08-30T00:29:34;6.75;;;4.32;;
39098;SDS011;24844;52.380;7.018;2022-08-30T00:31:59;7.63;;;4.50;;
39098;SDS011;24844;52.380;7.018;2022-08-30T00:34:26;7.15;;;4.45;;
39098;SDS011;24844;52.380;7.018;2022-08-30T00:36:52;7.18;;;4.80;;
39098;SDS011;24844;52.380;7.018;2022-08-30T00:39:18;6.57;;;4.78;;
39098;SDS011;24844;52.380;7.018;2022-08-30T00:41:43;5.25;;;4.75;;
39098;SDS011;24844;52.380;7.018;2022-08-30T00:44:09;4.57;;;4.18;;
39098;SDS011;24844;52.380;7.018;2022-08-30T00:46:35;5.30;;;4.80;;
39098;SDS011;24844;52.380;7.018;2022-08-30T00:49:02;8.82;;;4.32;;
39098;SDS011;24844;52.380;7.018;2022-08-30T00:51:30;5.22;;;4.50;;
39098;SDS011;24844;52.380;7.018;2022-08-30T00:53:57;8.45;;;5.40;;
39098;SDS011;24844;52.380;7.018;2022-08-30T00:56:23;6.60;;;4.65;;
39098;SDS011;24844;52.380;7.018;2022-08-30T00:58:50;6.68;;;5.05;;
39098;SDS011;24844;52.380;7.018;2022-08-30T01:01:19;6.10;;;4.85;;
39098;SDS011;24844;52.380;7.018;2022-08-30T01:03:45;5.45;;;4.85;;
39098;SDS011;24844;52.380;7.018;2022-08-30T01:06:12;5.47;;;4.97;;
39098;SDS011;24844;52.380;7.018;2022-08-30T01:08:42;6.97;;;5.30;;
39098;SDS011;24844;52.380;7.018;2022-08-30T01:11:09;5.63;;;4.85;;
39098;SDS011;24844;52.380;7.018;2022-08-30T01:13:36;9.10;;;5.47;;
39098;SDS011;24844;52.380;7.018;2022-08-30T01:16:02;7.18;;;5.45;;
39098;SDS011;24844;52.380;7.018;2022-08-30T01:18:29;6.18;;;5.07;;
39098;SDS011;24844;52.380;7.018;2022-08-30T01:23:41;6.43;;;5.70;;
39098;SDS011;24844;52.380;7.018;2022-08-30T01:26:09;8.25;;;5.70;;
39098;SDS011;24844;52.380;7.018;2022-08-30T01:28:35;9.95;;;5.18;;
39098;SDS011;24844;52.380;7.018;2022-08-30T01:31:03;7.75;;;4.95;;
39098;SDS011;24844;52.380;7.018;2022-08-30T01:33:28;5.88;;;4.72;;
39098;SDS011;24844;52.380;7.018;2022-08-30T01:35:58;9.10;;;5.35;;
39098;SDS011;24844;52.380;7.018;2022-08-30T01:38:32;5.10;;;4.60;;
39098;SDS011;24844;52.380;7.018;2022-08-30T01:41:08;10.27;;;5.05;;
39098;SDS011;24844;52.380;7.018;2022-08-30T01:43:37;5.15;;;4.60;;
39098;SDS011;24844;52.380;7.018;2022-08-30T01:46:02;5.18;;;4.68;;
39098;SDS011;24844;52.380;7.018;2022-08-30T01:48:28;7.63;;;4.97;;
39098;SDS011;24844;52.380;7.018;2022-08-30T01:50:54;8.43;;;5.13;;
39098;SDS011;24844;52.380;7.018;2022-08-30T01:53:20;6.38;;;4.70;;
39098;SDS011;24844;52.380;7.018;2022-08-30T01:55:46;5.47;;;4.60;;
39098;SDS011;24844;52.380;7.018;2022-08-30T01:58:11;5.32;;;4.80;;
39098;SDS011;24844;52.380;7.018;2022-08-30T02:00:37;8.38;;;4.82;;
39098;SDS011;24844;52.380;7.018;2022-08-30T02:03:04;5.82;;;4.72;;
39098;SDS011;24844;52.380;7.018;2022-08-30T02:05:30;5.35;;;4.22;;
39098;SDS011;24844;52.380;7.018;2022-08-30T02:07:55;6.13;;;4.45;;
39098;SDS011;24844;52.380;7.018;2022-08-30T02:10:21;5.30;;;4.50;;
39098;SDS011;24844;52.380;7.018;2022-08-30T02:12:47;7.28;;;4.57;;
39098;SDS011;24844;52.380;7.018;2022-08-30T02:15:13;4.93;;;4.50;;
39098;SDS011;24844;52.380;7.018;2022-08-30T02:17:40;4.93;;;4.15;;
39098;SDS011;24844;52.380;7.018;2022-08-30T02:20:06;4.47;;;4.07;;
39098;SDS011;24844;52.380;7.018;2022-08-30T02:22:33;5.57;;;4.82;;
39098;SDS011;24844;52.380;7.018;2022-08-30T02:24:59;5.07;;;4.38;;
39098;SDS011;24844;52.380;7.018;2022-08-30T02:27:25;8.57;;;4.43;;
39098;SDS011;24844;52.380;7.018;2022-08-30T02:29:51;8.85;;;5.30;;
39098;SDS011;24844;52.380;7.018;2022-08-30T02:32:16;4.90;;;4.40;;
39098;SDS011;24844;52.380;7.018;2022-08-30T02:34:42;5.03;;;4.50;;
39098;SDS011;24844;52.380;7.018;2022-08-30T02:37:08;5.38;;;4.43;;
39098;SDS011;24844;52.380;7.018;2022-08-30T02:39:34;7.25;;;4.50;;
39098;SDS011;24844;52.380;7.018;2022-08-30T02:42:00;9.48;;;4.38;;
39098;SDS011;24844;52.380;7.018;2022-08-30T02:44:26;5.93;;;4.53;;
39098;SDS011;24844;52.380;7.018;2022-08-30T02:46:51;5.63;;;4.22;;
39098;SDS011;24844;52.380;7.018;2022-08-30T02:49:17;8.63;;;4.80;;
39098;SDS011;24844;52.380;7.018;2022-08-30T02:51:43;8.02;;;5.28;;
39098;SDS011;24844;52.380;7.018;2022-08-30T02:54:08;5.60;;;5.03;;
39098;SDS011;24844;52.380;7.018;2022-08-30T02:56:34;7.75;;;5.20;;
39098;SDS011;24844;52.380;7.018;2022-08-30T02:59:00;7.82;;;5.22;;
39098;SDS011;24844;52.380;7.018;2022-08-30T03:01:26;8.23;;;5.38;;
39098;SDS011;24844;52.380;7.018;2022-08-30T03:03:51;6.65;;;5.35;;
39098;SDS011;24844;52.380;7.018;2022-08-30T03:06:17;9.63;;;6.28;;
39098;SDS011;24844;52.380;7.018;2022-08-30T03:08:42;8.93;;;5.90;;
39098;SDS011;24844;52.380;7.018;2022-08-30T03:11:08;8.95;;;6.20;;
39098;SDS011;24844;52.380;7.018;2022-08-30T03:13:34;8.90;;;6.05;;
39098;SDS011;24844;52.380;7.018;2022-08-30T03:15:59;6.75;;;5.35;;
39098;SDS011;24844;52.380;7.018;2022-08-30T03:18:25;6.70;;;5.60;;
39098;SDS011;24844;52.380;7.018;2022-08-30T03:20:51;7.82;;;5.97;;
39098;SDS011;24844;52.380;7.018;2022-08-30T03:23:16;7.38;;;6.65;;
39098;SDS011;24844;52.380;7.018;2022-08-30T03:25:43;8.25;;;6.30;;
39098;SDS011;24844;52.380;7.018;2022-08-30T03:28:09;7.15;;;6.45;;
39098;SDS011;24844;52.380;7.018;2022-08-30T03:30:34;7.32;;;6.32;;
39098;SDS011;24844;52.380;7.018;2022-08-30T03:33:00;9.93;;;6.00;;
39098;SDS011;24844;52.380;7.018;2022-08-30T03:35:27;7.22;;;6.53;;
39098;SDS011;24844;52.380;7.018;2022-08-30T03:37:53;8.80;;;6.15;;
39098;SDS011;24844;52.380;7.018;2022-08-30T03:40:19;9.07;;;6.35;;
39098;SDS011;24844;52.380;7.018;2022-08-30T03:42:46;7.30;;;5.93;;
39098;SDS011;24844;52.380;7.018;2022-08-30T03:45:13;8.95;;;6.72;;
39098;SDS011;24844;52.380;7.018;2022-08-30T03:47:41;6.38;;;5.80;;
39098;SDS011;24844;52.380;7.018;2022-08-30T03:50:07;7.05;;;6.03;;
39098;SDS011;24844;52.380;7.018;2022-08-30T03:52:34;8.00;;;5.82;;
39098;SDS011;24844;52.380;7.018;2022-08-30T03:54:59;6.75;;;5.85;;
39098;SDS011;24844;52.380;7.018;2022-08-30T03:57:25;6.72;;;5.68;;
39098;SDS011;24844;52.380;7.018;2022-08-30T03:59:51;8.55;;;6.05;;
39098;SDS011;24844;52.380;7.018;2022-08-30T04:02:17;9.27;;;6.03;;
39098;SDS011;24844;52.380;7.018;2022-08-30T04:04:43;7.65;;;5.15;;
39098;SDS011;24844;52.380;7.018;2022-08-30T04:07:08;7.85;;;5.00;;
39098;SDS011;24844;52.380;7.018;2022-08-30T04:09:34;6.70;;;5.47;;
39098;SDS011;24844;52.380;7.018;2022-08-30T04:11:59;10.88;;;5.57;;
39098;SDS011;24844;52.380;7.018;2022-08-30T04:14:25;8.23;;;5.47;;
39098;SDS011;24844;52.380;7.018;2022-08-30T04:16:51;7.53;;;5.63;;
39098;SDS011;24844;52.380;7.018;2022-08-30T04:19:16;7.55;;;5.53;;
39098;SDS011;24844;52.380;7.018;2022-08-30T04:21:42;10.50;;;5.78;;
39098;SDS011;24844;52.380;7.018;2022-08-30T04:24:09;5.75;;;5.07;;
39098;SDS011;24844;52.380;7.018;2022-08-30T04:26:37;8.23;;;5.82;;
39098;SDS011;24844;52.380;7.018;2022-08-30T04:29:03;7.55;;;5.78;;
39098;SDS011;24844;52.380;7.018;2022-08-30T04:31:29;9.80;;;5.88;;
39098;SDS011;24844;52.380;7.018;2022-08-30T04:33:55;7.50;;;5.88;;
39098;SDS011;24844;52.380;7.018;2022-08-30T04:36:21;9.10;;;5.63;;
39098;SDS011;24844;52.380;7.018;2022-08-30T04:38:46;6.93;;;5.88;;
39098;SDS011;24844;52.380;7.018;2022-08-30T04:41:13;11.27;;;6.43;;
39098;SDS011;24844;52.380;7.018;2022-08-30T04:43:41;6.82;;;5.47;;
39098;SDS011;24844;52.380;7.018;2022-08-30T04:46:08;6.75;;;5.97;;
39098;SDS011;24844;52.380;7.018;2022-08-30T04:48:35;6.80;;;5.03;;
39098;SDS011;24844;52.380;7.018;2022-08-30T04:51:05;7.80;;;5.40;;
39098;SDS011;24844;52.380;7.018;2022-08-30T04:53:33;7.13;;;5.57;;
39098;SDS011;24844;52.380;7.018;2022-08-30T04:55:59;8.52;;;5.78;;
39098;SDS011;24844;52.380;7.018;2022-08-30T04:58:25;10.10;;;6.80;;
39098;SDS011;24844;52.380;7.018;2022-08-30T05:00:51;8.82;;;7.13;;
39098;SDS011;24844;52.380;7.018;2022-08-30T05:03:16;7.22;;;6.18;;
39098;SDS011;24844;52.380;7.018;2022-08-30T05:05:48;6.85;;;6.20;;
39098;SDS011;24844;52.380;7.018;2022-08-30T05:08:16;6.35;;;5.75;;
39098;SDS011;24844;52.380;7.018;2022-08-30T05:10:47;8.20;;;7.15;;
39098;SDS011;24844;52.380;7.018;2022-08-30T05:13:15;9.73;;;6.65;;
39098;SDS011;24844;52.380;7.018;2022-08-30T05:15:42;8.97;;;7.03;;
39098;SDS011;24844;52.380;7.018;2022-08-30T05:18:09;7.15;;;6.45;;
39098;SDS011;24844;52.380;7.018;2022-08-30T05:20:35;8.32;;;7.18;;
39098;SDS011;24844;52.380;7.018;2022-08-30T05:23:02;7.65;;;6.28;;
39098;SDS011;24844;52.380;7.018;2022-08-30T05:25:29;6.78;;;6.07;;
39098;SDS011;24844;52.380;7.018;2022-08-30T05:27:57;10.30;;;6.82;;
39098;SDS011;24844;52.380;7.018;2022-08-30T05:30:23;10.88;;;7.95;;
39098;SDS011;24844;52.380;7.018;2022-08-30T05:32:50;8.40;;;6.90;;
39098;SDS011;24844;52.380;7.018;2022-08-30T05:35:17;8.65;;;6.03;;
39098;SDS011;24844;52.380;7.018;2022-08-30T05:37:43;12.13;;;7.03;;
39098;SDS011;24844;52.380;7.018;2022-08-30T05:40:10;10.93;;;7.22;;
39098;SDS011;24844;52.380;7.018;2022-08-30T05:42:36;9.80;;;6.55;;
39098;SDS011;24844;52.380;7.018;2022-08-30T05:45:04;9.85;;;6.57;;
39098;SDS011;24844;52.380;7.018;2022-08-30T05:47:30;12.45;;;6.60;;
39098;SDS011;24844;52.380;7.018;2022-08-30T05:49:55;10.00;;;6.60;;
39098;SDS011;24844;52.380;7.018;2022-08-30T05:52:21;7.32;;;6.28;;
39098;SDS011;24844;52.380;7.018;2022-08-30T05:54:53;8.60;;;5.57;;
39098;SDS011;24844;52.380;7.018;2022-08-30T05:57:23;7.28;;;6.30;;
39098;SDS011;24844;52.380;7.018;2022-08-30T05:59:49;6.88;;;6.18;;
39098;SDS011;24844;52.380;7.018;2022-08-30T06:02:14;7.00;;;6.18;;
39098;SDS011;24844;52.380;7.018;2022-08-30T06:04:40;8.30;;;5.90;;
39098;SDS011;24844;52.380;7.018;2022-08-30T06:07:05;8.32;;;6.50;;
39098;SDS011;24844;52.380;7.018;2022-08-30T06:09:31;6.47;;;5.60;;
39098;SDS011;24844;52.380;7.018;2022-08-30T06:11:56;11.68;;;6.00;;
39098;SDS011;24844;52.380;7.018;2022-08-30T06:14:22;7.82;;;5.63;;
39098;SDS011;24844;52.380;7.018;2022-08-30T06:16:48;7.93;;;4.95;;
39098;SDS011;24844;52.380;7.018;2022-08-30T06:19:15;10.30;;;5.72;;
39098;SDS011;24844;52.380;7.018;2022-08-30T06:21:41;6.47;;;5.43;;
39098;SDS011;24844;52.380;7.018;2022-08-30T06:24:11;6.32;;;4.30;;
39098;SDS011;24844;52.380;7.018;2022-08-30T06:26:39;11.98;;;5.10;;
39098;SDS011;24844;52.380;7.018;2022-08-30T06:29:08;9.32;;;4.72;;
39098;SDS011;24844;52.380;7.018;2022-08-30T06:31:35;7.00;;;4.68;;
39098;SDS011;24844;52.380;7.018;2022-08-30T06:34:00;6.55;;;4.20;;
39098;SDS011;24844;52.380;7.018;2022-08-30T06:36:26;5.78;;;4.20;;
39098;SDS011;24844;52.380;7.018;2022-08-30T06:38:53;8.80;;;4.00;;
39098;SDS011;24844;52.380;7.018;2022-08-30T06:41:22;6.72;;;4.38;;
39098;SDS011;24844;52.380;7.018;2022-08-30T06:43:50;7.75;;;4.18;;
39098;SDS011;24844;52.380;7.018;2022-08-30T06:46:24;7.40;;;4.18;;
39098;SDS011;24844;52.380;7.018;2022-08-30T06:48:51;9.38;;;3.95;;
39098;SDS011;24844;52.380;7.018;2022-08-30T06:51:18;5.78;;;3.47;;
39098;SDS011;24844;52.380;7.018;2022-08-30T06:53:45;8.20;;;3.47;;
39098;SDS011;24844;52.380;7.018;2022-08-30T06:56:12;5.95;;;3.60;;
39098;SDS011;24844;52.380;7.018;2022-08-30T06:58:38;7.35;;;3.42;;
39098;SDS011;24844;52.380;7.018;2022-08-30T07:01:06;6.05;;;3.30;;
39098;SDS011;24844;52.380;7.018;2022-08-30T07:03:35;6.65;;;2.97;;
39098;SDS011;24844;52.380;7.018;2022-08-30T07:06:00;5.95;;;3.00;;
39098;SDS011;24844;52.380;7.018;2022-08-30T07:08:26;7.68;;;2.80;;
39098;SDS011;24844;52.380;7.018;2022-08-30T07:10:52;6.18;;;2.67;;
39098;SDS011;24844;52.380;7.018;2022-08-30T07:13:18;4.80;;;2.72;;
39098;SDS011;24844;52.380;7.018;2022-08-30T07:15:45;6.40;;;3.00;;
39098;SDS011;24844;52.380;7.018;2022-08-30T07:18:12;5.22;;;2.72;;
39098;SDS011;24844;52.380;7.018;2022-08-30T07:20:57;12.23;;;2.60;;
39098;SDS011;24844;52.380;7.018;2022-08-30T07:23:29;9.52;;;2.78;;
39098;SDS011;24844;52.380;7.018;2022-08-30T07:25:55;4.22;;;2.22;;
39098;SDS011;24844;52.380;7.018;2022-08-30T07:28:21;4.00;;;2.30;;
39098;SDS011;24844;52.380;7.018;2022-08-30T07:30:46;5.03;;;2.35;;
39098;SDS011;24844;52.380;7.018;2022-08-30T07:33:12;4.78;;;1.85;;
39098;SDS011;24844;52.380;7.018;2022-08-30T07:35:38;6.88;;;1.88;;
39098;SDS011;24844;52.380;7.018;2022-08-30T07:38:03;4.90;;;2.00;;
39098;SDS011;24844;52.380;7.018;2022-08-30T07:40:29;6.20;;;1.90;;
39098;SDS011;24844;52.380;7.018;2022-08-30T07:42:54;6.93;;;1.30;;
39098;SDS011;24844;52.380;7.018;2022-08-30T07:45:20;4.78;;;1.33;;
39098;SDS011;24844;52.380;7.018;2022-08-30T07:47:46;2.80;;;1.08;;
39098;SDS011;24844;52.380;7.018;2022-08-30T07:50:11;3.38;;;1.00;;
39098;SDS011;24844;52.380;7.018;2022-08-30T07:52:37;2.70;;;1.00;;
39098;SDS011;24844;52.380;7.018;2022-08-30T07:55:03;4.13;;;1.00;;
39098;SDS011;24844;52.380;7.018;2022-08-30T07:57:30;2.58;;;0.85;;
39098;SDS011;24844;52.380;7.018;2022-08-30T07:59:58;6.80;;;1.27;;
39098;SDS011;24844;52.380;7.018;2022-08-30T08:02:24;4.43;;;1.23;;
39098;SDS011;24844;52.380;7.018;2022-08-30T08:04:50;2.92;;;0.80;;
39098;SDS011;24844;52.380;7.018;2022-08-30T08:07:15;2.88;;;0.70;;
39098;SDS011;24844;52.380;7.018;2022-08-30T08:09:41;4.15;;;0.90;;
39098;SDS011;24844;52.380;7.018;2022-08-30T08:12:07;4.22;;;0.70;;
39098;SDS011;24844;52.380;7.018;2022-08-30T08:14:33;1.40;;;0.70;;
39098;SDS011;24844;52.380;7.018;2022-08-30T08:16:59;3.58;;;0.85;;
39098;SDS011;24844;52.380;7.018;2022-08-30T08:19:24;4.03;;;0.80;;
39098;SDS011;24844;52.380;7.018;2022-08-30T08:21:50;2.88;;;0.82;;
39098;SDS011;24844;52.380;7.018;2022-08-30T08:24:21;2.40;;;0.82;;
39098;SDS011;24844;52.380;7.018;2022-08-30T08:26:47;2.03;;;1.00;;
39098;SDS011;24844;52.380;7.018;2022-08-30T08:29:13;1.95;;;1.00;;
39098;SDS011;24844;52.380;7.018;2022-08-30T08:31:39;4.28;;;1.00;;
39098;SDS011;24844;52.380;7.018;2022-08-30T08:34:05;2.42;;;0.85;;
39098;SDS011;24844;52.380;7.018;2022-08-30T08:36:31;3.65;;;1.25;;
39098;SDS011;24844;52.380;7.018;2022-08-30T08:38:58;1.77;;;0.70;;
39098;SDS011;24844;52.380;7.018;2022-08-30T08:41:34;3.25;;;0.82;;
39098;SDS011;24844;52.380;7.018;2022-08-30T08:47:46;5.38;;;1.00;;
39098;SDS011;24844;52.380;7.018;2022-08-30T08:50:01;1.70;;;0.90;;
39098;SDS011;24844;52.380;7.018;2022-08-30T08:52:49;2.33;;;1.10;;
39098;SDS011;24844;52.380;7.018;2022-08-30T08:55:43;2.40;;;0.88;;
39098;SDS011;24844;52.380;7.018;2022-08-30T08:58:18;5.65;;;1.20;;
39098;SDS011;24844;52.380;7.018;2022-08-30T09:00:57;3.58;;;0.80;;
39098;SDS011;24844;52.380;7.018;2022-08-30T09:03:24;4.47;;;0.80;;
39098;SDS011;24844;52.380;7.018;2022-08-30T09:05:51;4.35;;;0.82;;
39098;SDS011;24844;52.380;7.018;2022-08-30T09:08:19;3.67;;;1.00;;
39098;SDS011;24844;52.380;7.018;2022-08-30T09:10:54;3.70;;;0.90;;
39098;SDS011;24844;52.380;7.018;2022-08-30T09:13:24;4.00;;;0.88;;
39098;SDS011;24844;52.380;7.018;2022-08-30T09:15:50;1.38;;;0.55;;
39098;SDS011;24844;52.380;7.018;2022-08-30T09:18:17;2.65;;;0.90;;
39098;SDS011;24844;52.380;7.018;2022-08-30T09:20:44;1.45;;;0.68;;
39098;SDS011;24844;52.380;7.018;2022-08-30T09:25:51;1.83;;;0.60;;
39098;SDS011;24844;52.380;7.018;2022-08-30T09:28:31;2.30;;;0.65;;
39098;SDS011;24844;52.380;7.018;2022-08-30T09:31:00;2.35;;;0.90;;
39098;SDS011;24844;52.380;7.018;2022-08-30T09:33:55;2.42;;;1.08;;
39098;SDS011;24844;52.380;7.018;2022-08-30T09:36:48;2.55;;;0.70;;
39098;SDS011;24844;52.380;7.018;2022-08-30T09:39:19;5.05;;;0.88;;
39098;SDS011;24844;52.380;7.018;2022-08-30T09:42:09;3.67;;;0.90;;
39098;SDS011;24844;52.380;7.018;2022-08-30T09:44:39;1.50;;;0.70;;
39098;SDS011;24844;52.380;7.018;2022-08-30T09:47:04;1.83;;;0.90;;
39098;SDS011;24844;52.380;7.018;2022-08-30T09:49:46;2.15;;;0.75;;
39098;SDS011;24844;52.380;7.018;2022-08-30T09:52:17;2.17;;;0.95;;
39098;SDS011;24844;52.380;7.018;2022-08-30T09:55:20;3.72;;;0.77;;
39098;SDS011;24844;52.380;7.018;2022-08-30T09:58:02;1.48;;;0.90;;
39098;SDS011;24844;52.380;7.018;2022-08-30T10:00:41;4.72;;;0.77;;
39098;SDS011;24844;52.380;7.018;2022-08-30T10:11:07;2.05;;;0.60;;
39098;SDS011;24844;52.380;7.018;2022-08-30T10:13:41;0.80;;;0.55;;
39098;SDS011;24844;52.380;7.018;2022-08-30T10:16:18;4.22;;;0.93;;
39098;SDS011;24844;52.380;7.018;2022-08-30T10:21:56;1.33;;;0.70;;
39098;SDS011;24844;52.380;7.018;2022-08-30T10:24:33;2.65;;;0.80;;
39098;SDS011;24844;52.380;7.018;2022-08-30T10:27:05;2.90;;;0.80;;
39098;SDS011;24844;52.380;7.018;2022-08-30T10:29:40;3.50;;;0.80;;
39098;SDS011;24844;52.380;7.018;2022-08-30T10:32:19;1.88;;;0.82;;
39098;SDS011;24844;52.380;7.018;2022-08-30T10:35:02;1.58;;;0.70;;
39098;SDS011;24844;52.380;7.018;2022-08-30T10:37:30;3.25;;;0.90;;
39098;SDS011;24844;52.380;7.018;2022-08-30T10:40:02;6.95;;;1.20;;
39098;SDS011;24844;52.380;7.018;2022-08-30T10:42:51;3.97;;;1.10;;
39098;SDS011;24844;52.380;7.018;2022-08-30T10:50:53;2.25;;;0.85;;
39098;SDS011;24844;52.380;7.018;2022-08-30T10:53:31;2.80;;;0.60;;
39098;SDS011;24844;52.380;7.018;2022-08-30T10:56:07;6.45;;;0.90;;
39098;SDS011;24844;52.380;7.018;2022-08-30T10:58:36;2.53;;;0.88;;
39098;SDS011;24844;52.380;7.018;2022-08-30T11:09:41;1.30;;;0.90;;
39098;SDS011;24844;52.380;7.018;2022-08-30T11:12:32;1.77;;;0.80;;
39098;SDS011;24844;52.380;7.018;2022-08-30T11:15:19;1.85;;;0.82;;
39098;SDS011;24844;52.380;7.018;2022-08-30T11:20:34;1.23;;;0.70;;
39098;SDS011;24844;52.380;7.018;2022-08-30T11:25:55;2.25;;;1.08;;
39098;SDS011;24844;52.380;7.018;2022-08-30T11:31:07;2.20;;;0.90;;
39098;SDS011;24844;52.380;7.018;2022-08-30T11:33:53;3.90;;;0.93;;
39098;SDS011;24844;52.380;7.018;2022-08-30T11:41:28;2.38;;;0.63;;
39098;SDS011;24844;52.380;7.018;2022-08-30T11:43:54;4.80;;;0.85;;
39098;SDS011;24844;52.380;7.018;2022-08-30T11:46:36;2.08;;;0.70;;
39098;SDS011;24844;52.380;7.018;2022-08-30T11:54:34;2.05;;;0.75;;
39098;SDS011;24844;52.380;7.018;2022-08-30T12:00:39;2.70;;;0.88;;
39098;SDS011;24844;52.380;7.018;2022-08-30T12:03:25;2.47;;;0.80;;
39098;SDS011;24844;52.380;7.018;2022-08-30T12:05:58;2.08;;;0.80;;
39098;SDS011;24844;52.380;7.018;2022-08-30T12:08:39;3.53;;;0.77;;
39098;SDS011;24844;52.380;7.018;2022-08-30T12:18:48;1.45;;;0.70;;
39098;SDS011;24844;52.380;7.018;2022-08-30T12:31:42;2.20;;;0.85;;
39098;SDS011;24844;52.380;7.018;2022-08-30T12:34:18;3.15;;;0.73;;
39098;SDS011;24844;52.380;7.018;2022-08-30T12:39:39;1.35;;;0.75;;
39098;SDS011;24844;52.380;7.018;2022-08-30T12:42:10;1.42;;;0.80;;
39098;SDS011;24844;52.380;7.018;2022-08-30T12:44:45;5.25;;;0.88;;
39098;SDS011;24844;52.380;7.018;2022-08-30T12:47:12;4.68;;;0.75;;
39098;SDS011;24844;52.380;7.018;2022-08-30T12:49:42;1.35;;;0.80;;
39098;SDS011;24844;52.380;7.018;2022-08-30T12:52:17;1.50;;;0.80;;
39098;SDS011;24844;52.380;7.018;2022-08-30T12:54:51;1.42;;;0.90;;
39098;SDS011;24844;52.380;7.018;2022-08-30T12:57:39;0.88;;;0.60;;
39098;SDS011;24844;52.380;7.018;2022-08-30T13:02:59;3.67;;;0.90;;
39098;SDS011;24844;52.380;7.018;2022-08-30T13:13:33;2.58;;;0.70;;
39098;SDS011;24844;52.380;7.018;2022-08-30T13:18:52;2.00;;;0.80;;
39098;SDS011;24844;52.380;7.018;2022-08-30T13:23:59;1.15;;;0.68;;
39098;SDS011;24844;52.380;7.018;2022-08-30T13:28:58;3.47;;;0.70;;
39098;SDS011;24844;52.380;7.018;2022-08-30T13:31:27;2.42;;;0.80;;
39098;SDS011;24844;52.380;7.018;2022-08-30T13:33:54;1.67;;;0.70;;
39098;SDS011;24844;52.380;7.018;2022-08-30T13:36:21;1.30;;;0.70;;
39098;SDS011;24844;52.380;7.018;2022-08-30T13:38:52;2.03;;;0.60;;
39098;SDS011;24844;52.380;7.018;2022-08-30T13:41:18;1.42;;;0.80;;
39098;SDS011;24844;52.380;7.018;2022-08-30T13:43:45;2.10;;;0.85;;
39098;SDS011;24844;52.380;7.018;2022-08-30T13:46:11;2.83;;;0.93;;
39098;SDS011;24844;52.380;7.018;2022-08-30T13:48:38;3.40;;;0.73;;
39098;SDS011;24844;52.380;7.018;2022-08-30T13:51:04;2.67;;;0.80;;
39098;SDS011;24844;52.380;7.018;2022-08-30T13:53:30;3.70;;;0.90;;
39098;SDS011;24844;52.380;7.018;2022-08-30T13:55:56;2.67;;;0.82;;
39098;SDS011;24844;52.380;7.018;2022-08-30T13:58:21;4.75;;;0.77;;
39098;SDS011;24844;52.380;7.018;2022-08-30T14:00:47;1.38;;;0.60;;
39098;SDS011;24844;52.380;7.018;2022-08-30T14:03:13;0.88;;;0.50;;
39098;SDS011;24844;52.380;7.018;2022-08-30T14:05:40;1.77;;;0.90;;
39098;SDS011;24844;52.380;7.018;2022-08-30T14:08:07;2.10;;;0.70;;
39098;SDS011;24844;52.380;7.018;2022-08-30T14:10:35;2.15;;;0.75;;
39098;SDS011;24844;52.380;7.018;2022-08-30T14:13:02;1.95;;;0.88;;
39098;SDS011;24844;52.380;7.018;2022-08-30T14:15:29;1.60;;;0.80;;
39098;SDS011;24844;52.380;7.018;2022-08-30T14:17:56;2.53;;;0.90;;
39098;SDS011;24844;52.380;7.018;2022-08-30T14:20:21;4.75;;;0.70;;
39098;SDS011;24844;52.380;7.018;2022-08-30T14:22:47;2.63;;;0.80;;
39098;SDS011;24844;52.380;7.018;2022-08-30T14:25:13;1.63;;;0.75;;
39098;SDS011;24844;52.380;7.018;2022-08-30T14:27:39;2.63;;;1.00;;
39098;SDS011;24844;52.380;7.018;2022-08-30T14:30:04;2.58;;;0.82;;
39098;SDS011;24844;52.380;7.018;2022-08-30T14:32:31;2.67;;;0.65;;
39098;SDS011;24844;52.380;7.018;2022-08-30T14:34:56;1.25;;;0.75;;
39098;SDS011;24844;52.380;7.018;2022-08-30T14:37:22;7.13;;;1.13;;
39098;SDS011;24844;52.380;7.018;2022-08-30T14:39:47;3.80;;;0.95;;
39098;SDS011;24844;52.380;7.018;2022-08-30T14:42:13;4.95;;;1.38;;
39098;SDS011;24844;52.380;7.018;2022-08-30T14:44:39;3.10;;;0.80;;
39098;SDS011;24844;52.380;7.018;2022-08-30T14:47:05;1.83;;;0.90;;
39098;SDS011;24844;52.380;7.018;2022-08-30T14:49:31;2.25;;;0.70;;
39098;SDS011;24844;52.380;7.018;2022-08-30T14:51:56;2.72;;;0.90;;
39098;SDS011;24844;52.380;7.018;2022-08-30T14:54:24;3.33;;;0.77;;
39098;SDS011;24844;52.380;7.018;2022-08-30T14:56:52;2.10;;;0.80;;
39098;SDS011;24844;52.380;7.018;2022-08-30T14:59:18;1.50;;;0.88;;
39098;SDS011;24844;52.380;7.018;2022-08-30T15:01:44;2.83;;;0.77;;
39098;SDS011;24844;52.380;7.018;2022-08-30T15:04:10;2.33;;;0.95;;
39098;SDS011;24844;52.380;7.018;2022-08-30T15:06:37;0.85;;;0.70;;
39098;SDS011;24844;52.380;7.018;2022-08-30T15:09:05;1.40;;;0.70;;
39098;SDS011;24844;52.380;7.018;2022-08-30T15:11:32;1.65;;;0.98;;
39098;SDS011;24844;52.380;7.018;2022-08-30T15:13:58;2.25;;;0.80;;
39098;SDS011;24844;52.380;7.018;2022-08-30T15:16:25;2.90;;;0.50;;
39098;SDS011;24844;52.380;7.018;2022-08-30T15:18:52;2.75;;;0.82;;
39098;SDS011;24844;52.380;7.018;2022-08-30T15:21:25;2.05;;;0.88;;
39098;SDS011;24844;52.380;7.018;2022-08-30T15:23:52;3.70;;;0.73;;
39098;SDS011;24844;52.380;7.018;2022-08-30T15:26:18;1.60;;;0.70;;
39098;SDS011;24844;52.380;7.018;2022-08-30T15:28:44;4.32;;;1.00;;
39098;SDS011;24844;52.380;7.018;2022-08-30T15:31:10;0.70;;;0.52;;
39098;SDS011;24844;52.380;7.018;2022-08-30T15:33:36;2.42;;;0.70;;
39098;SDS011;24844;52.380;7.018;2022-08-30T15:36:03;1.58;;;0.75;;
39098;SDS011;24844;52.380;7.018;2022-08-30T15:38:30;2.35;;;0.93;;
39098;SDS011;24844;52.380;7.018;2022-08-30T15:40:56;2.22;;;0.88;;
39098;SDS011;24844;52.380;7.018;2022-08-30T15:43:26;1.48;;;1.00;;
39098;SDS011;24844;52.380;7.018;2022-08-30T15:45:52;4.22;;;0.90;;
39098;SDS011;24844;52.380;7.018;2022-08-30T15:48:18;2.28;;;0.90;;
39098;SDS011;24844;52.380;7.018;2022-08-30T15:50:44;3.53;;;0.80;;
39098;SDS011;24844;52.380;7.018;2022-08-30T15:53:10;3.05;;;0.90;;
39098;SDS011;24844;52.380;7.018;2022-08-30T15:55:36;2.28;;;1.08;;
39098;SDS011;24844;52.380;7.018;2022-08-30T15:58:01;1.63;;;0.80;;
39098;SDS011;24844;52.380;7.018;2022-08-30T16:00:27;2.17;;;0.70;;
39098;SDS011;24844;52.380;7.018;2022-08-30T16:02:52;1.85;;;0.73;;
39098;SDS011;24844;52.380;7.018;2022-08-30T16:05:18;1.83;;;0.90;;
39098;SDS011;24844;52.380;7.018;2022-08-30T16:07:47;6.45;;;1.00;;
39098;SDS011;24844;52.380;7.018;2022-08-30T16:10:14;0.55;;;0.55;;
39098;SDS011;24844;52.380;7.018;2022-08-30T16:12:39;1.27;;;0.70;;
39098;SDS011;24844;52.380;7.018;2022-08-30T16:15:05;0.95;;;0.73;;
39098;SDS011;24844;52.380;7.018;2022-08-30T16:17:31;3.80;;;1.10;;
39098;SDS011;24844;52.380;7.018;2022-08-30T16:19:57;3.42;;;0.70;;
39098;SDS011;24844;52.380;7.018;2022-08-30T16:22:22;0.75;;;0.70;;
39098;SDS011;24844;52.380;7.018;2022-08-30T16:24:50;4.30;;;0.73;;
39098;SDS011;24844;52.380;7.018;2022-08-30T16:27:15;7.10;;;0.98;;
39098;SDS011;24844;52.380;7.018;2022-08-30T16:29:41;1.02;;;0.77;;